Time;durP1;ratioP1;P1;durP2;ratioP2;P2;SDS_P1;SDS_P2;PMS_P1;PMS_P2;Temp;Humidity;BMP_temperature;BMP_pressure;BME280_temperature;BME280_humidity;BME280_pressure;Samples;Min_cycle;Max_cycle;Signal;HPM_P1;HPM_P2
2022/04/16 00:02:00;;;;;;;;;6.00;5.00;;;;;23.94;76.68;102359.09;5056752;28;45554;-64
2022/04/16 00:04:26;;;;;;;;;7.00;6.00;;;;;23.93;76.49;102353.72;5053632;28;45461;-64
2022/04/16 00:06:52;;;;;;;;;5.00;5.00;;;;;23.94;76.58;102352.81;5053017;28;45354;-65
2022/04/16 00:09:17;;;;;;;;;4.67;4.67;;;;;23.94;76.12;102358.22;5055457;28;63597;-66
2022/04/16 00:11:43;;;;;;;;;4.00;4.00;;;;;23.93;76.19;102348.34;5048825;28;45218;-64
2022/04/16 00:14:08;;;;;;;;;4.33;4.33;;;;;23.93;76.67;102351.03;5056564;28;45463;-63
2022/04/16 00:16:33;;;;;;;;;5.67;5.00;;;;;23.93;76.29;102354.63;5055819;28;51861;-64
2022/04/16 00:18:59;;;;;;;;;3.67;3.67;;;;;23.92;76.41;102349.25;5050501;28;46488;-64
2022/04/16 00:21:24;;;;;;;;;5.67;5.67;;;;;23.92;76.08;102349.25;5056217;28;45328;-64
2022/04/16 00:23:51;;;;;;;;;5.67;4.33;;;;;23.91;76.29;102342.06;5056536;28;45252;-64
2022/04/16 00:26:17;;;;;;;;;5.67;5.00;;;;;23.89;76.59;102347.50;5047855;28;45508;-65
2022/04/16 00:28:42;;;;;;;;;4.67;4.67;;;;;23.89;76.39;102339.41;5052894;28;47355;-66
2022/04/16 00:31:08;;;;;;;;;4.00;4.00;;;;;23.90;76.26;102351.97;5055908;28;45291;-65
2022/04/16 00:33:33;;;;;;;;;5.00;5.00;;;;;23.90;76.28;102354.66;5056544;28;45442;-65
2022/04/16 00:36:02;;;;;;;;;5.00;5.00;;;;;23.88;76.37;102348.44;5055784;28;45618;-66
2022/04/16 00:38:28;;;;;;;;;5.00;5.00;;;;;23.89;76.29;102338.53;5050719;28;46489;-64
2022/04/16 00:40:53;;;;;;;;;4.00;4.00;;;;;23.88;76.24;102347.53;5052083;28;45550;-65
2022/04/16 00:43:27;;;;;;;;;4.00;4.00;;;;;23.88;76.31;102343.03;5055807;28;52947;-64
2022/04/16 00:45:53;;;;;;;;;5.67;4.67;;;;;23.87;76.15;102340.38;5050303;28;45265;-64
2022/04/16 00:48:22;;;;;;;;;5.00;5.00;;;;;23.86;76.00;102346.66;5038005;28;47396;-64
2022/04/16 00:50:51;;;;;;;;;5.33;4.00;;;;;23.85;76.30;102343.09;5056363;28;45462;-64
2022/04/16 00:53:16;;;;;;;;;4.00;4.00;;;;;23.84;76.39;102338.59;5055825;28;45279;-64
2022/04/16 00:55:42;;;;;;;;;6.00;4.67;;;;;23.84;76.22;102338.59;5056484;28;45531;-64
2022/04/16 00:58:07;;;;;;;;;6.00;4.33;;;;;23.84;76.13;102340.41;5037464;28;47582;-64
2022/04/16 01:00:33;;;;;;;;;3.00;3.00;;;;;23.83;76.30;102341.34;5056092;28;45305;-64
2022/04/16 01:02:58;;;;;;;;;5.67;4.00;;;;;23.82;76.07;102340.47;5055265;28;58228;-64
2022/04/16 01:05:24;;;;;;;;;7.00;5.67;;;;;23.82;76.23;102336.88;5043667;28;55313;-63
2022/04/16 01:07:54;;;;;;;;;6.33;4.00;;;;;23.80;76.12;102342.28;5055673;28;47503;-65
2022/04/16 01:10:21;;;;;;;;;5.00;5.00;;;;;23.81;76.18;102335.06;5050142;28;45453;-64
2022/04/16 01:12:47;;;;;;;;;6.33;4.00;;;;;23.81;75.85;102332.38;5055405;28;45447;-65
2022/04/16 01:15:13;;;;;;;;;3.33;3.00;;;;;23.79;76.40;102329.72;5045768;28;45275;-65
2022/04/16 01:17:39;;;;;;;;;4.33;4.33;;;;;23.78;75.98;102342.31;5055420;28;46737;-64
2022/04/16 01:20:05;;;;;;;;;5.00;5.00;;;;;23.78;75.85;102333.34;5036965;28;46413;-66
2022/04/16 01:22:30;;;;;;;;;5.33;5.33;;;;;23.77;76.19;102334.28;5055347;28;45498;-64
2022/04/16 01:24:55;;;;;;;;;6.00;6.00;;;;;23.77;76.13;102335.16;5058227;28;51137;-64
2022/04/16 01:27:21;;;;;;;;;4.00;4.00;;;;;23.76;76.23;102336.09;5058167;28;61605;-65
2022/04/16 01:29:48;;;;;;;;;5.33;5.33;;;;;23.75;75.87;102342.38;5058165;28;45634;-65
2022/04/16 01:32:13;;;;;;;;;4.33;4.33;;;;;23.75;76.02;102341.47;5050945;28;45439;-64
2022/04/16 01:34:40;;;;;;;;;4.33;4.33;;;;;23.74;76.14;102337.00;5052407;28;45389;-65
2022/04/16 01:37:05;;;;;;;;;5.00;3.33;;;;;23.74;76.11;102342.41;5059003;28;46491;-64
2022/04/16 01:39:31;;;;;;;;;4.67;3.00;;;;;23.73;75.85;102346.91;5058855;28;45320;-64
2022/04/16 01:41:57;;;;;;;;;5.67;4.00;;;;;23.72;76.25;102341.56;5053756;28;45558;-64
2022/04/16 01:44:22;;;;;;;;;4.33;4.33;;;;;23.72;75.99;102341.56;5056174;28;45990;-64
2022/04/16 01:46:48;;;;;;;;;7.00;4.00;;;;;23.71;76.06;102342.50;5058413;28;46559;-64
2022/04/16 01:49:13;;;;;;;;;5.00;5.00;;;;;23.71;76.07;102348.78;5054604;28;57889;-64
2022/04/16 01:51:38;;;;;;;;;5.33;4.67;;;;;23.71;76.21;102342.50;5058427;28;53704;-64
2022/04/16 01:54:04;;;;;;;;;4.00;4.00;;;;;23.70;76.08;102344.31;5058070;28;56323;-64
2022/04/16 01:56:30;;;;;;;;;5.00;5.00;;;;;23.69;75.94;102344.31;5058332;28;46486;-65
2022/04/16 01:58:55;;;;;;;;;6.00;4.67;;;;;23.68;76.18;102346.13;5058430;28;45264;-64
2022/04/16 02:01:22;;;;;;;;;4.00;4.00;;;;;23.68;75.94;102354.22;5057831;28;57247;-64
2022/04/16 02:03:47;;;;;;;;;5.00;5.00;;;;;23.68;76.24;102339.84;5057225;28;45459;-66
2022/04/16 02:06:13;;;;;;;;;3.33;3.33;;;;;23.67;76.14;102338.06;5058277;28;47350;-64
2022/04/16 02:08:38;;;;;;;;;7.00;5.00;;;;;23.67;76.07;102338.94;5056509;28;45354;-64
2022/04/16 02:11:03;;;;;;;;;7.33;5.00;;;;;23.67;76.31;102348.84;5057735;28;57328;-65
2022/04/16 02:13:30;;;;;;;;;5.33;4.00;;;;;23.66;76.06;102344.38;5054841;28;45281;-63
2022/04/16 02:15:56;;;;;;;;;4.00;4.00;;;;;23.64;76.05;102344.38;5051360;28;46511;-64
2022/04/16 02:18:23;;;;;;;;;6.67;5.00;;;;;23.64;76.15;102348.91;5052329;28;45387;-64
2022/04/16 02:20:49;;;;;;;;;5.00;5.00;;;;;23.63;76.20;102341.72;5058681;28;45366;-63
2022/04/16 02:23:14;;;;;;;;;6.00;4.33;;;;;23.62;76.12;102342.63;5058431;28;45561;-64
2022/04/16 02:25:43;;;;;;;;;6.00;4.00;;;;;23.62;76.01;102350.72;5057499;28;46336;-66
2022/04/16 02:28:10;;;;;;;;;5.00;4.00;;;;;23.62;76.03;102346.22;5053434;28;45572;-64
2022/04/16 02:30:37;;;;;;;;;6.00;5.00;;;;;23.62;76.10;102350.72;5053877;28;45311;-64
2022/04/16 02:33:02;;;;;;;;;6.67;5.00;;;;;23.61;76.23;102341.75;5058458;28;45606;-64
2022/04/16 02:35:28;;;;;;;;;5.33;5.33;;;;;23.59;75.92;102345.38;5057404;28;47334;-64
2022/04/16 02:37:53;;;;;;;;;5.00;5.00;;;;;23.59;76.19;102342.66;5058193;28;45352;-64
2022/04/16 02:40:19;;;;;;;;;6.00;5.00;;;;;23.58;75.95;102339.09;5056874;28;45280;-66
2022/04/16 02:42:45;;;;;;;;;4.67;4.67;;;;;23.58;76.18;102347.19;5057406;28;45671;-63
2022/04/16 02:47:56;;;;;;;;;5.00;4.33;;;;;23.58;76.01;102343.59;5056829;28;45443;-65
2022/04/16 02:50:24;;;;;;;;;6.00;5.33;;;;;23.57;76.08;102341.81;5058166;28;45237;-64
2022/04/16 02:52:50;;;;;;;;;4.33;4.33;;;;;23.57;76.27;102345.41;5058195;28;45454;-66
2022/04/16 02:55:16;;;;;;;;;6.00;5.33;;;;;23.58;76.48;102340.91;5051011;28;47351;-66
2022/04/16 02:57:43;;;;;;;;;6.33;6.33;;;;;23.56;76.32;102335.53;5057166;28;45466;-64
2022/04/16 03:00:10;;;;;;;;;6.00;5.00;;;;;23.58;76.41;102338.19;5054216;28;45598;-63
2022/04/16 03:02:37;;;;;;;;;7.00;5.33;;;;;23.59;76.17;102337.28;5039981;28;45506;-64
2022/04/16 03:05:03;;;;;;;;;5.67;4.33;;;;;23.61;76.41;102336.34;5057007;28;46704;-65
2022/04/16 03:07:29;;;;;;;;;6.33;6.33;;;;;23.63;76.36;102341.72;5057424;28;45422;-64
2022/04/16 03:09:54;;;;;;;;;7.33;5.00;;;;;23.64;76.58;102340.81;5053329;28;58042;-64
2022/04/16 03:12:19;;;;;;;;;5.67;5.67;;;;;23.66;76.64;102342.56;5056402;28;45343;-64
2022/04/16 03:17:31;;;;;;;;;7.00;5.00;;;;;23.70;76.35;102340.69;5056838;28;45488;-65
2022/04/16 03:19:57;;;;;;;;;5.00;5.00;;;;;23.72;76.42;102346.97;5056954;28;45347;-64
2022/04/16 03:22:22;;;;;;;;;6.67;4.00;;;;;23.71;76.37;102343.38;5056762;28;45505;-64
2022/04/16 03:24:47;;;;;;;;;5.00;4.67;;;;;23.72;76.17;102345.16;5047296;28;62524;-64
2022/04/16 03:27:13;;;;;;;;;5.33;5.00;;;;;23.75;76.19;102341.47;5056282;28;61834;-65
2022/04/16 03:29:38;;;;;;;;;5.00;5.00;;;;;23.76;76.33;102351.38;5052108;28;45648;-64
2022/04/16 03:32:04;;;;;;;;;5.67;5.67;;;;;23.76;76.11;102352.28;5057291;28;45631;-64
2022/04/16 03:34:30;;;;;;;;;5.00;5.00;;;;;23.75;76.11;102342.38;5050636;28;46406;-64
2022/04/16 03:36:56;;;;;;;;;4.33;4.33;;;;;23.77;75.69;102345.06;5038532;28;63293;-66
2022/04/16 03:39:22;;;;;;;;;7.00;5.67;;;;;23.77;75.80;102345.94;5055210;28;45525;-65
2022/04/16 03:41:47;;;;;;;;;5.00;5.00;;;;;23.78;76.02;102341.44;5056289;28;45397;-64
2022/04/16 03:44:13;;;;;;;;;5.33;5.33;;;;;23.78;75.91;102336.94;5056899;28;46444;-65
2022/04/16 03:46:38;;;;;;;;;6.00;6.00;;;;;23.79;75.98;102340.50;5049190;28;45528;-64
2022/04/16 03:49:04;;;;;;;;;5.00;5.00;;;;;23.78;75.81;102336.03;5056431;28;53696;-65
2022/04/16 03:51:29;;;;;;;;;5.00;5.00;;;;;23.78;75.79;102334.22;5056799;28;49107;-66
2022/04/16 03:53:55;;;;;;;;;5.67;5.33;;;;;23.76;75.92;102333.38;5056161;28;47689;-65
2022/04/16 04:01:48;;;;;;;;;5.33;5.33;;;;;23.77;75.76;102336.97;5056178;28;45273;-64
2022/04/16 04:04:14;;;;;;;;;5.67;5.67;;;;;23.77;75.61;102336.97;5056094;28;46438;-64
2022/04/16 04:06:40;;;;;;;;;6.33;6.33;;;;;23.77;75.52;102334.28;5055853;28;60827;-65
2022/04/16 04:09:06;;;;;;;;;5.67;5.00;;;;;23.75;75.51;102326.19;5050139;28;45402;-64
2022/04/16 04:11:32;;;;;;;;;3.33;3.33;;;;;23.76;75.67;102327.09;5056831;28;45513;-64
2022/04/16 04:13:57;;;;;;;;;4.67;4.67;;;;;23.74;75.33;102332.50;5055764;28;47630;-64
2022/04/16 04:16:23;;;;;;;;;5.33;5.33;;;;;23.76;75.71;102337.91;5055859;28;59664;-64
2022/04/16 04:18:48;;;;;;;;;6.67;5.67;;;;;23.74;74.94;102334.31;5056184;28;45476;-64
2022/04/16 04:21:13;;;;;;;;;6.33;6.00;;;;;23.72;75.33;102336.16;5055747;28;48171;-66
2022/04/16 04:23:39;;;;;;;;;7.00;5.67;;;;;23.73;75.71;102340.63;5055316;28;62134;-66
2022/04/16 04:26:04;;;;;;;;;4.67;4.67;;;;;23.72;75.19;102347.84;5055476;28;61599;-66
2022/04/16 04:28:29;;;;;;;;;5.67;5.67;;;;;23.71;75.33;102346.06;5056029;28;45335;-66
2022/04/16 04:30:55;;;;;;;;;6.00;6.00;;;;;23.72;75.11;102349.66;5056229;28;45443;-66
2022/04/16 04:33:20;;;;;;;;;6.67;4.00;;;;;23.70;75.34;102348.78;5055802;28;59787;-64
2022/04/16 04:35:46;;;;;;;;;4.00;4.00;;;;;23.70;75.44;102354.16;5056292;28;45204;-64
2022/04/16 04:38:11;;;;;;;;;3.33;3.33;;;;;23.69;75.42;102349.69;5054976;28;45240;-64
2022/04/16 04:40:36;;;;;;;;;7.67;5.00;;;;;23.69;75.13;102349.69;5047442;28;45491;-64
2022/04/16 04:43:02;;;;;;;;;6.00;6.00;;;;;23.67;75.26;102349.75;5055488;28;47293;-65
2022/04/16 04:45:27;;;;;;;;;8.00;6.33;;;;;23.67;75.24;102346.16;5055996;28;45367;-64
2022/04/16 04:47:53;;;;;;;;;6.67;6.67;;;;;23.65;75.04;102356.06;5054362;28;57810;-65
2022/04/16 04:50:18;;;;;;;;;6.00;6.00;;;;;23.64;75.26;102348.91;5048445;28;45293;-65
2022/04/16 04:52:43;;;;;;;;;6.33;5.67;;;;;23.64;75.19;102348.91;5055190;28;60690;-63
2022/04/16 04:55:11;;;;;;;;;6.00;6.00;;;;;23.63;75.33;102348.00;5055374;28;45524;-64
2022/04/16 04:57:37;;;;;;;;;6.67;5.00;;;;;23.63;75.23;102355.22;5050922;28;45319;-63
2022/04/16 05:00:06;;;;;;;;;7.67;6.00;;;;;23.62;75.06;102350.72;5054299;28;45420;-64
2022/04/16 05:02:42;;;;;;;;;5.33;4.00;;;;;23.62;75.30;102356.09;5057595;22;46498;-65
2022/04/16 05:05:08;;;;;;;;;7.00;7.00;;;;;23.61;75.37;102362.44;5075606;28;45363;-63
2022/04/16 05:07:34;;;;;;;;;5.33;5.33;;;;;23.60;75.13;102357.97;5078066;28;45403;-64
2022/04/16 05:09:59;;;;;;;;;7.00;7.00;;;;;23.60;74.97;102360.66;5079178;28;45490;-66
2022/04/16 05:12:24;;;;;;;;;6.33;6.33;;;;;23.59;75.43;102366.94;5079503;28;56205;-64
2022/04/16 05:14:50;;;;;;;;;6.00;6.00;;;;;23.58;75.05;102366.06;5078598;28;62481;-64
2022/04/16 05:17:15;;;;;;;;;8.00;6.67;;;;;23.58;75.10;102376.84;5079765;28;45158;-66
2022/04/16 05:19:40;;;;;;;;;8.00;7.00;;;;;23.58;75.22;102378.66;5073376;28;55727;-64
2022/04/16 05:22:06;;;;;;;;;6.33;6.33;;;;;23.57;75.15;102379.56;5074926;28;54989;-63
2022/04/16 05:24:31;;;;;;;;;8.00;7.00;;;;;23.56;75.22;102385.88;5078959;28;45418;-64
2022/04/16 05:26:57;;;;;;;;;6.33;6.00;;;;;23.55;75.27;102385.00;5078640;28;45665;-64
2022/04/16 05:29:23;;;;;;;;;7.67;7.33;;;;;23.55;74.95;102387.69;5075597;28;45532;-63
2022/04/16 05:31:49;;;;;;;;;7.00;7.00;;;;;23.55;75.11;102392.22;5072093;28;46832;-65
2022/04/16 05:34:20;;;;;;;;;7.67;7.67;;;;;23.53;75.06;102395.78;5072219;28;51404;-64
2022/04/16 05:36:50;;;;;;;;;7.67;6.00;;;;;23.53;74.97;102394.91;5071172;28;45335;-66
2022/04/16 05:39:16;;;;;;;;;6.67;6.67;;;;;23.51;74.96;102392.25;5079462;28;45457;-64
2022/04/16 05:41:41;;;;;;;;;8.33;8.33;;;;;23.51;75.09;102392.25;5076335;28;46655;-64
2022/04/16 05:44:07;;;;;;;;;9.67;8.00;;;;;23.51;75.21;102407.53;5077764;28;45321;-64
2022/04/16 05:46:32;;;;;;;;;8.00;8.00;;;;;23.50;75.12;102409.34;5079073;28;45746;-64
2022/04/16 05:48:57;;;;;;;;;6.33;6.33;;;;;23.50;75.32;102403.97;5068046;28;55806;-65
2022/04/16 05:51:25;;;;;;;;;6.00;6.00;;;;;23.49;75.14;102407.56;5078271;28;62200;-64
2022/04/16 05:53:50;;;;;;;;;7.00;7.00;;;;;23.48;75.21;102411.16;5073476;28;45458;-64
2022/04/16 05:56:16;;;;;;;;;7.00;7.00;;;;;23.48;75.06;102412.97;5078310;28;45400;-66
2022/04/16 05:58:45;;;;;;;;;7.67;7.00;;;;;23.49;75.14;102412.09;5054592;28;46446;-63
2022/04/16 06:01:11;;;;;;;;;11.67;9.00;;;;;23.48;74.93;102407.56;5071640;28;58120;-64
2022/04/16 06:03:37;;;;;;;;;9.67;8.67;;;;;23.47;75.23;102417.47;5077478;28;45360;-64
2022/04/16 06:06:06;;;;;;;;;7.00;7.00;;;;;23.47;74.74;102416.59;5072756;28;45608;-63
2022/04/16 06:08:31;;;;;;;;;7.67;7.67;;;;;23.46;74.65;102418.41;5072958;28;45562;-64
2022/04/16 06:10:56;;;;;;;;;7.33;7.33;;;;;23.47;74.77;102417.47;5069382;28;47323;-64
2022/04/16 06:13:22;;;;;;;;;8.67;7.00;;;;;23.47;74.94;102417.47;5074029;28;45324;-64
2022/04/16 06:15:47;;;;;;;;;9.33;9.33;;;;;23.47;74.73;102416.59;5075887;28;59217;-64
2022/04/16 06:18:13;;;;;;;;;8.67;8.67;;;;;23.45;74.81;102419.31;5066573;28;47557;-64
2022/04/16 06:20:38;;;;;;;;;7.00;7.00;;;;;23.46;74.52;102415.69;5077006;28;46775;-63
2022/04/16 06:23:04;;;;;;;;;9.67;7.67;;;;;23.46;74.47;102420.22;5075681;28;45586;-64
2022/04/16 06:25:30;;;;;;;;;8.00;8.00;;;;;23.46;74.47;102418.41;5077580;28;45379;-64
2022/04/16 06:27:55;;;;;;;;;9.00;7.33;;;;;23.47;74.33;102428.25;5057269;28;45486;-64
2022/04/16 06:30:21;;;;;;;;;8.00;8.00;;;;;23.47;74.88;102427.38;5076410;28;46493;-64
2022/04/16 06:32:46;;;;;;;;;8.67;8.00;;;;;23.46;74.59;102426.50;5076795;28;45346;-64
2022/04/16 06:35:12;;;;;;;;;7.00;7.00;;;;;23.46;74.52;102429.19;5071456;28;45465;-62
2022/04/16 06:37:39;;;;;;;;;6.67;6.67;;;;;23.46;74.38;102426.50;5076705;28;45545;-64
2022/04/16 06:40:06;;;;;;;;;9.33;7.00;;;;;23.46;74.76;102431.88;5073926;28;47572;-62
2022/04/16 06:42:32;;;;;;;;;8.67;7.00;;;;;23.46;74.33;102431.00;5069921;28;45753;-64
2022/04/16 06:44:57;;;;;;;;;9.33;7.67;;;;;23.46;74.30;102431.00;5075687;28;45508;-64
2022/04/16 06:47:23;;;;;;;;;8.67;6.33;;;;;23.47;74.50;102430.97;5073603;28;46389;-64
2022/04/16 06:49:49;;;;;;;;;9.00;8.00;;;;;23.47;74.00;102432.78;5067453;28;47400;-64
2022/04/16 06:52:17;;;;;;;;;24.67;23.67;;;;;23.44;72.45;102436.41;5074229;28;45505;-65
2022/04/16 06:54:42;;;;;;;;;29.33;27.33;;;;;23.26;67.61;102437.59;5058615;28;45429;-64
2022/04/16 06:57:07;;;;;;;;;31.33;26.33;;;;;22.96;65.26;102433.59;5076091;28;45343;-64
2022/04/16 06:59:33;;;;;;;;;28.00;28.00;;;;;22.61;64.03;102427.78;5077257;28;62929;-64
2022/04/16 07:01:58;;;;;;;;;41.67;34.00;;;;;22.27;63.36;102433.59;5074082;28;61817;-65
2022/04/16 07:04:23;;;;;;;;;26.67;25.67;;;;;21.96;63.13;102433.91;5058570;28;54280;-65
2022/04/16 07:06:49;;;;;;;;;36.00;31.67;;;;;21.64;62.69;102425.28;5050933;28;57479;-64
2022/04/16 07:09:14;;;;;;;;;31.33;28.00;;;;;21.37;63.62;102435.38;5071423;28;55454;-64
2022/04/16 07:11:39;;;;;;;;;27.33;27.33;;;;;21.12;63.95;102433.75;5071261;28;54946;-64
2022/04/16 07:14:05;;;;;;;;;23.00;18.67;;;;;20.90;63.83;102424.94;5072266;27;56210;-65
2022/04/16 07:16:30;;;;;;;;;30.33;25.67;;;;;20.68;64.10;102434.91;5069275;28;45441;-64
2022/04/16 07:18:55;;;;;;;;;33.00;29.67;;;;;20.51;64.85;102432.31;5065475;28;59134;-63
2022/04/16 07:21:21;;;;;;;;;33.33;27.33;;;;;20.34;65.78;102436.81;5074751;28;54661;-64
2022/04/16 07:23:46;;;;;;;;;30.33;28.00;;;;;20.18;65.92;102443.13;5076340;28;45501;-64
2022/04/16 07:26:11;;;;;;;;;28.00;27.33;;;;;20.04;66.70;102443.19;5076974;28;45636;-64
2022/04/16 07:28:37;;;;;;;;;33.67;29.33;;;;;19.92;66.98;102443.19;5076004;28;63419;-65
2022/04/16 07:31:02;;;;;;;;;28.33;26.67;;;;;19.78;67.26;102437.88;5075282;28;56018;-65
2022/04/16 07:33:29;;;;;;;;;28.67;26.33;;;;;19.68;67.34;102436.09;5077192;28;45347;-66
2022/04/16 07:35:55;;;;;;;;;34.67;32.00;;;;;19.58;68.10;102436.06;5067676;28;45715;-65
2022/04/16 07:38:21;;;;;;;;;30.50;29.25;;;;;19.52;68.58;102432.50;5068473;28;47439;-68
2022/04/16 07:40:46;;;;;;;;;31.00;29.00;;;;;19.45;68.40;102438.75;5064313;28;45738;-63
2022/04/16 07:43:12;;;;;;;;;41.25;34.00;;;;;19.40;69.24;102435.19;5067186;28;57512;-63
2022/04/16 07:45:38;;;;;;;;;36.00;32.33;;;;;19.33;69.62;102429.84;5074645;28;45559;-63
2022/04/16 07:48:04;;;;;;;;;30.00;27.67;;;;;19.33;70.10;102442.31;5075281;28;47203;-64
2022/04/16 07:50:29;;;;;;;;;35.00;31.00;;;;;19.31;70.29;102436.97;5070282;28;45747;-61
2022/04/16 07:52:55;;;;;;;;;34.75;29.50;;;;;19.27;70.49;102434.28;5075249;28;46058;-65
2022/04/16 07:55:20;;;;;;;;;28.00;25.67;;;;;19.23;70.69;102446.78;5073369;28;51497;-63
2022/04/16 07:57:47;;;;;;;;;34.25;31.25;;;;;19.21;71.19;102445.88;5071608;28;61905;-63
2022/04/16 08:00:12;;;;;;;;;34.50;31.75;;;;;19.19;71.08;102444.09;5074297;28;45508;-63
2022/04/16 08:02:38;;;;;;;;;34.75;31.25;;;;;19.17;71.80;102453.91;5075365;28;45336;-63
2022/04/16 08:05:04;;;;;;;;;38.25;34.00;;;;;19.16;71.74;102457.47;5076217;28;45821;-64
2022/04/16 08:07:30;;;;;;;;;34.00;31.25;;;;;19.12;71.79;102448.53;5075324;28;46626;-66
2022/04/16 08:09:55;;;;;;;;;34.00;31.33;;;;;19.09;71.95;102446.75;5071820;28;45954;-67
2022/04/16 08:12:21;;;;;;;;;37.00;32.50;;;;;19.07;71.95;102445.88;5075203;28;45459;-66
2022/04/16 08:14:47;;;;;;;;;32.50;29.50;;;;;19.07;72.53;102453.91;5066081;28;45447;-65
2022/04/16 08:17:12;;;;;;;;;32.33;31.00;;;;;19.09;72.83;102448.53;5069694;28;46343;-66
2022/04/16 08:19:37;;;;;;;;;33.00;30.00;;;;;19.12;73.18;102451.22;5067214;28;63251;-67
2022/04/16 08:22:07;;;;;;;;;34.33;29.67;;;;;19.17;73.25;102449.44;5069770;28;45671;-66
2022/04/16 08:27:01;;;;;;;;;38.75;32.00;;;;;19.21;73.59;102459.25;5075856;28;47049;-64
2022/04/16 08:29:27;;;;;;;;;29.33;24.67;;;;;19.22;74.53;102466.41;5076071;28;45432;-66
2022/04/16 08:31:52;;;;;;;;;31.33;31.00;;;;;19.26;74.27;102470.00;5072609;28;58160;-66
2022/04/16 08:34:18;;;;;;;;;28.67;26.00;;;;;19.30;73.98;102478.03;5069855;28;45576;-66
2022/04/16 08:36:43;;;;;;;;;33.75;30.25;;;;;19.35;74.51;102464.66;5071019;28;63678;-66
2022/04/16 08:39:08;;;;;;;;;36.50;31.25;;;;;19.38;74.25;102470.88;5074770;28;50755;-65
2022/04/16 08:41:34;;;;;;;;;24.33;22.33;;;;;19.38;75.56;102470.88;5073794;28;53191;-65
2022/04/16 08:43:59;;;;;;;;;23.33;19.00;;;;;19.45;76.10;102470.91;5066726;28;56384;-64
2022/04/16 08:46:30;;;;;;;;;35.00;27.67;;;;;19.54;74.99;102478.94;5072178;28;51885;-66
2022/04/16 08:48:57;;;;;;;;;39.33;32.00;;;;;19.59;75.08;102471.81;5071578;28;45504;-66
2022/04/16 08:51:25;;;;;;;;;34.67;32.00;;;;;19.63;74.33;102470.94;5076317;28;45421;-65
2022/04/16 08:53:50;;;;;;;;;31.67;31.33;;;;;19.64;74.37;102478.06;5075742;28;45174;-65
2022/04/16 08:56:16;;;;;;;;;39.75;33.00;;;;;19.69;74.53;102470.03;5067790;28;62697;-66
2022/04/16 08:58:41;;;;;;;;;32.33;31.00;;;;;19.71;74.87;102462.88;5075837;28;56882;-65
2022/04/16 09:01:06;;;;;;;;;28.67;24.33;;;;;19.75;74.94;102470.03;5069950;28;56769;-65
2022/04/16 09:03:37;;;;;;;;;21.33;19.33;;;;;19.75;75.26;102472.72;5068307;27;45617;-66
2022/04/16 09:06:03;;;;;;;;;29.67;27.67;;;;;19.81;75.13;102470.91;5076022;27;45578;-65
2022/04/16 09:08:35;;;;;;;;;36.33;31.67;;;;;19.90;75.52;102475.38;5075309;27;45427;-66
2022/04/16 09:11:05;;;;;;;;;30.00;27.67;;;;;19.97;75.23;102478.94;5058076;28;45340;-64
2022/04/16 09:13:31;;;;;;;;;25.67;25.67;;;;;20.01;74.81;102478.03;5073103;27;45445;-65
2022/04/16 09:16:06;;;;;;;;;29.67;25.00;;;;;20.03;74.23;102473.59;5074702;27;45644;-66
2022/04/16 09:18:55;;;;;;;;;30.33;27.33;;;;;20.07;74.28;102475.34;5075493;28;47042;-66
2022/04/16 09:21:25;;;;;;;;;30.67;26.00;;;;;20.12;75.11;102465.50;5053482;28;45673;-66
2022/04/16 09:23:53;;;;;;;;;24.00;22.67;;;;;20.15;74.84;102465.50;5071102;28;45681;-65
2022/04/16 09:26:44;;;;;;;;;19.67;17.00;;;;;20.24;74.41;102465.50;5057458;28;45582;-66
2022/04/16 09:29:18;;;;;;;;;33.00;30.33;;;;;20.30;73.51;102460.09;5055899;28;46025;-67
2022/04/16 09:31:53;;;;;;;;;34.33;30.67;;;;;20.32;73.69;102460.09;5036407;28;45314;-65
2022/04/16 09:34:21;;;;;;;;;29.67;27.33;;;;;20.30;73.27;102453.84;5069645;28;45523;-67
2022/04/16 09:36:48;;;;;;;;;23.67;22.00;;;;;20.31;74.38;102453.81;5075311;28;46333;-66
2022/04/16 09:39:23;;;;;;;;;27.00;23.67;;;;;20.34;73.65;102461.84;5050602;28;45597;-66
2022/04/16 09:41:53;;;;;;;;;20.67;20.67;;;;;20.37;73.99;102460.97;5069482;28;45434;-66
2022/04/16 09:44:20;;;;;;;;;30.00;28.33;;;;;20.39;73.47;102454.69;5075201;28;45469;-65
2022/04/16 09:46:49;;;;;;;;;28.67;25.00;;;;;20.40;73.74;102451.13;5053157;28;45380;-66
2022/04/16 09:49:15;;;;;;;;;18.33;18.33;;;;;20.42;74.74;102448.41;5078079;28;45764;-65
2022/04/16 09:51:44;;;;;;;;;27.00;23.67;;;;;20.48;74.10;102451.09;5078706;28;45722;-66
2022/04/16 09:54:10;;;;;;;;;27.33;27.00;;;;;20.52;73.78;102446.63;5076696;28;45523;-66
2022/04/16 09:56:37;;;;;;;;;26.33;24.00;;;;;20.53;73.32;102445.72;5076900;28;46582;-66
2022/04/16 09:59:05;;;;;;;;;27.67;17.00;;;;;20.60;73.86;102442.09;5076445;28;45444;-66
2022/04/16 10:01:35;;;;;;;;;15.00;12.67;;;;;20.67;74.74;102441.19;5077957;28;45437;-66
2022/04/16 10:04:01;;;;;;;;;23.67;19.00;;;;;20.75;73.75;102428.59;5077296;28;45592;-66
2022/04/16 10:06:28;;;;;;;;;15.00;13.33;;;;;20.83;74.60;102432.16;5076380;28;46583;-66
2022/04/16 10:08:54;;;;;;;;;17.00;16.00;;;;;20.89;73.89;102428.53;5077377;28;45461;-65
2022/04/16 10:11:32;;;;;;;;;17.67;15.00;;;;;20.95;73.84;102430.28;5073802;28;45407;-66
2022/04/16 10:14:04;;;;;;;;;14.33;13.33;;;;;21.00;73.63;102431.16;5050725;28;45494;-66
2022/04/16 10:17:01;;;;;;;;;12.33;12.33;;;;;21.04;73.05;102440.94;5053295;28;46084;-66
2022/04/16 10:19:37;;;;;;;;;15.67;13.00;;;;;21.08;72.75;102438.22;5041170;28;45334;-65
2022/04/16 10:22:02;;;;;;;;;17.00;16.00;;;;;21.12;71.99;102436.44;5077917;28;45383;-65
2022/04/16 10:24:28;;;;;;;;;14.67;12.67;;;;;21.17;71.67;102440.88;5078471;28;45270;-65
2022/04/16 10:27:03;;;;;;;;;16.33;14.00;;;;;21.23;70.77;102444.41;5074801;28;47500;-66
2022/04/16 10:29:34;;;;;;;;;13.00;12.00;;;;;21.25;70.51;102435.41;5072991;28;45462;-66
2022/04/16 10:31:59;;;;;;;;;14.00;11.33;;;;;21.27;70.01;102430.94;5078153;28;45437;-65
2022/04/16 10:34:29;;;;;;;;;14.33;14.33;;;;;21.30;70.55;102440.78;5052348;28;55496;-66
2022/04/16 10:36:55;;;;;;;;;12.33;12.33;;;;;21.32;69.70;102437.22;5078011;28;47138;-67
2022/04/16 10:39:25;;;;;;;;;16.33;12.67;;;;;21.34;69.43;102423.75;5077926;28;45375;-65
2022/04/16 10:42:04;;;;;;;;;17.33;15.67;;;;;21.35;69.39;102429.09;5074073;28;45475;-66
2022/04/16 10:44:43;;;;;;;;;16.67;16.00;;;;;21.38;69.13;102421.03;5078405;28;45549;-67
2022/04/16 10:47:13;;;;;;;;;15.33;12.67;;;;;21.41;69.00;102428.16;5076071;28;46325;-67
2022/04/16 10:49:43;;;;;;;;;12.67;10.33;;;;;21.40;69.25;102426.38;5077371;28;45403;-66
2022/04/16 10:52:21;;;;;;;;;16.33;16.33;;;;;21.41;68.38;102421.00;5075018;28;45496;-66
2022/04/16 10:54:47;;;;;;;;;15.67;14.33;;;;;21.40;67.97;102421.91;5070848;28;45453;-65
2022/04/16 10:57:21;;;;;;;;;9.33;8.67;;;;;21.39;68.19;102427.28;5071785;28;46467;-65
2022/04/16 10:59:46;;;;;;;;;14.33;13.33;;;;;21.40;68.16;102418.31;5077404;28;45436;-67
2022/04/16 11:02:26;;;;;;;;;19.67;12.67;;;;;21.43;67.79;102412.94;5054619;28;56133;-65
2022/04/16 11:04:59;;;;;;;;;12.00;12.00;;;;;21.47;68.16;102425.44;5071594;28;45365;-66
2022/04/16 11:07:26;;;;;;;;;13.33;13.00;;;;;21.48;67.58;102420.97;5077515;28;47159;-66
2022/04/16 11:09:52;;;;;;;;;14.00;11.33;;;;;21.50;65.69;102425.41;5076820;28;45355;-67
2022/04/16 11:12:23;;;;;;;;;12.67;10.00;;;;;21.51;66.19;102421.78;5076326;28;45552;-66
2022/04/16 11:14:49;;;;;;;;;11.33;9.33;;;;;21.54;66.53;102420.91;5054811;28;45559;-66
2022/04/16 11:17:14;;;;;;;;;13.67;10.67;;;;;21.56;64.73;102419.06;5076880;28;45440;-65
2022/04/16 11:19:40;;;;;;;;;10.33;10.33;;;;;21.56;65.02;102421.75;5069749;28;57199;-67
2022/04/16 11:22:05;;;;;;;;;8.00;7.67;;;;;21.55;65.23;102418.19;5074814;28;57637;-65
2022/04/16 11:24:31;;;;;;;;;8.67;7.00;;;;;21.60;65.35;102420.84;5047559;28;45463;-67
2022/04/16 11:35:12;;;;;;;;;10.67;9.33;;;;;21.68;64.45;102419.88;5077372;28;45241;-66
2022/04/16 11:37:38;;;;;;;;;9.00;8.67;;;;;21.70;63.17;102420.72;5076375;28;46683;-66
2022/04/16 11:40:05;;;;;;;;;7.33;7.33;;;;;21.73;63.64;102419.78;5075974;28;45519;-66